Time;durP1;ratioP1;P1;durP2;ratioP2;P2;SDS_P1;SDS_P2;PMS_P1;PMS_P2;Temp;Humidity;BMP_temperature;BMP_pressure;BME280_temperature;BME280_humidity;BME280_pressure;Samples;Min_cycle;Max_cycle;Signal;HPM_P1;HPM_P2
2023/06/18 00:04:50;;;;;;;11.90;7.60;;;;;;;16.39;81.42;100251.16;220702;1264;138832;-90
2023/06/18 00:09:51;;;;;;;10.80;6.90;;;;;;;16.24;82.04;100254.16;222930;1264;141006;-90
2023/06/18 00:14:51;;;;;;;10.40;6.80;;;;;;;16.11;82.29;100252.83;223454;1263;139137;-91
2023/06/18 00:19:51;;;;;;;10.20;5.90;;;;;;;16.02;83.37;100249.06;222956;1263;141539;-90
2023/06/18 00:24:52;;;;;;;11.10;7.20;;;;;;;15.94;83.36;100252.98;223452;1264;140126;-90
2023/06/18 00:29:52;;;;;;;12.50;6.70;;;;;;;15.89;83.91;100249.81;223168;1264;141034;-91
2023/06/18 00:34:53;;;;;;;11.50;6.90;;;;;;;15.82;84.35;100248.63;223699;1264;139811;-91
2023/06/18 00:39:55;;;;;;;9.40;5.80;;;;;;;15.80;84.33;100245.48;222926;1264;141829;-90
2023/06/18 00:44:55;;;;;;;11.50;6.80;;;;;;;15.77;84.97;100239.17;223492;1263;139299;-89
2023/06/18 00:49:56;;;;;;;9.60;5.90;;;;;;;15.77;85.61;100242.20;223089;1264;141983;-91
2023/06/18 00:54:57;;;;;;;10.50;6.90;;;;;;;15.72;85.68;100240.59;223719;1264;139559;-92
2023/06/18 00:59:57;;;;;;;10.80;6.30;;;;;;;15.68;85.64;100235.49;223105;1264;140896;-91
2023/06/18 01:04:59;;;;;;;9.70;6.40;;;;;;;15.68;85.77;100234.39;223548;1264;138957;-90
2023/06/18 01:10:00;;;;;;;11.20;6.70;;;;;;;15.64;86.30;100238.56;223066;1264;140906;-90
2023/06/18 01:15:00;;;;;;;10.20;6.30;;;;;;;15.62;86.63;100237.16;223544;1264;140205;-91
2023/06/18 01:20:09;;;;;;;10.30;6.70;;;;;;;15.56;87.01;100237.46;222911;1265;142303;-91
2023/06/18 01:25:11;;;;;;;15.30;6.90;;;;;;;15.52;86.74;100235.14;223649;1264;142675;-90
2023/06/18 01:30:12;;;;;;;10.50;6.80;;;;;;;15.45;86.61;100232.84;223382;1264;141707;-90
2023/06/18 01:35:15;;;;;;;11.30;6.70;;;;;;;15.37;86.76;100230.57;223705;1264;139572;-91
2023/06/18 01:40:35;;;;;;;12.10;6.80;;;;;;;15.32;87.28;100235.13;223198;1264;142052;-92
2023/06/18 01:45:45;;;;;;;11.80;6.70;;;;;;;15.26;87.83;100231.85;223684;1264;139737;-90
2023/06/18 01:50:47;;;;;;;11.70;6.70;;;;;;;15.20;88.47;100226.92;220844;1264;140062;-91
2023/06/18 01:55:51;;;;;;;10.10;6.00;;;;;;;15.10;88.05;100234.63;222704;1265;138985;-92
2023/06/18 02:00:52;;;;;;;12.00;7.70;;;;;;;15.03;86.83;100240.95;222925;1264;141669;-91
2023/06/18 02:05:52;;;;;;;12.80;7.30;;;;;;;14.96;88.43;100243.16;223701;1264;97836;-91
2023/06/18 02:10:53;;;;;;;11.40;7.20;;;;;;;14.82;88.56;100248.20;222894;1264;141913;-91
2023/06/18 02:15:53;;;;;;;11.80;8.20;;;;;;;14.73;89.52;100254.31;223489;1264;138884;-91
2023/06/18 02:20:54;;;;;;;12.50;8.20;;;;;;;14.65;89.51;100251.84;223081;1264;141161;-91
2023/06/18 02:25:56;;;;;;;10.30;6.90;;;;;;;14.61;90.11;100249.04;223439;1264;139208;-91
2023/06/18 02:30:57;;;;;;;13.50;8.10;;;;;;;14.52;90.14;100247.04;222957;1264;141298;-91
2023/06/18 02:35:57;;;;;;;18.70;9.00;;;;;;;14.48;90.44;100256.16;223475;1266;97814;-91
2023/06/18 02:40:58;;;;;;;12.20;8.10;;;;;;;14.43;91.11;100256.75;223047;1264;142000;-91
2023/06/18 02:45:58;;;;;;;10.60;7.00;;;;;;;14.39;91.41;100263.04;223573;1263;139481;-90
2023/06/18 02:50:58;;;;;;;14.10;8.50;;;;;;;14.29;91.20;100274.81;222732;1264;141366;-92
2023/06/18 02:56:01;;;;;;;12.30;7.80;;;;;;;14.22;92.17;100281.49;223485;1263;139272;-92
2023/06/18 03:01:02;;;;;;;10.70;7.10;;;;;;;14.13;92.71;100281.60;222999;1263;140254;-92
2023/06/18 03:06:02;;;;;;;11.20;7.40;;;;;;;14.09;92.60;100287.16;223508;1264;96538;-91
2023/06/18 03:11:03;;;;;;;12.40;8.20;;;;;;;14.05;92.94;100285.99;222929;1263;140162;-91
2023/06/18 03:16:03;;;;;;;13.00;7.90;;;;;;;14.02;93.35;100284.89;223498;1264;138978;-91
2023/06/18 03:21:04;;;;;;;12.80;8.00;;;;;;;14.01;93.36;100290.91;223052;1263;139927;-92
2023/06/18 03:26:06;;;;;;;12.20;8.60;;;;;;;13.98;93.31;100294.56;223568;1264;139693;-90
2023/06/18 03:31:07;;;;;;;12.60;8.10;;;;;;;14.00;93.61;100294.24;223043;1264;141818;-92
2023/06/18 03:36:07;;;;;;;12.70;8.30;;;;;;;14.03;94.10;100301.10;222131;1264;97926;-91
2023/06/18 03:41:08;;;;;;;16.00;11.00;;;;;;;14.06;94.91;100302.20;221217;1264;142001;-92
2023/06/18 03:46:09;;;;;;;16.40;11.20;;;;;;;14.12;96.14;100305.17;223399;1265;139070;-91
2023/06/18 03:51:09;;;;;;;18.40;13.40;;;;;;;14.19;97.08;100312.27;222896;1264;141174;-90
2023/06/18 03:56:10;;;;;;;19.60;13.60;;;;;;;14.27;97.61;100319.03;223503;1263;139233;-91
2023/06/18 04:01:11;;;;;;;23.70;15.00;;;;;;;14.38;98.22;100321.83;222956;1263;141322;-92
2023/06/18 04:06:11;;;;;;;19.20;14.20;;;;;;;14.50;98.89;100331.31;223675;1263;96811;-92
2023/06/18 04:11:11;;;;;;;21.60;16.80;;;;;;;14.61;99.02;100332.59;222812;1264;141564;-92
2023/06/18 04:16:12;;;;;;;20.60;15.50;;;;;;;14.73;99.65;100332.34;223471;1264;139743;-91
2023/06/18 04:21:12;;;;;;;23.50;17.30;;;;;;;14.85;99.72;100338.12;222783;1267;141406;-89
2023/06/18 04:26:13;;;;;;;20.70;17.30;;;;;;;14.94;99.66;100342.80;223373;1263;140569;-90
2023/06/18 04:31:13;;;;;;;22.70;18.60;;;;;;;15.03;99.85;100339.95;222952;1264;141570;-89
2023/06/18 04:36:14;;;;;;;26.10;20.00;;;;;;;15.09;99.46;100338.55;223620;1264;139953;-89
2023/06/18 04:41:15;;;;;;;21.00;17.00;;;;;;;15.19;99.53;100343.75;223079;1263;141080;-90
2023/06/18 04:46:16;;;;;;;23.20;18.60;;;;;;;15.34;99.53;100346.34;223560;1264;139211;-90
2023/06/18 04:51:19;;;;;;;26.10;19.80;;;;;;;15.53;99.86;100344.27;222947;1263;141012;-90
2023/06/18 04:56:20;;;;;;;25.00;18.90;;;;;;;15.70;99.74;100349.38;223507;1264;140266;-91
2023/06/18 05:01:20;;;;;;;22.80;17.90;;;;;;;15.87;99.15;100355.77;222992;1263;141934;-91
2023/06/18 05:06:21;;;;;;;24.50;18.80;;;;;;;16.01;98.87;100353.55;223580;1264;139298;-91
2023/06/18 05:11:21;;;;;;;22.90;18.70;;;;;;;16.15;98.18;100349.95;223127;1264;142072;-90
2023/06/18 05:16:22;;;;;;;23.40;16.40;;;;;;;16.33;98.14;100350.27;223350;1264;139240;-91
2023/06/18 05:21:22;;;;;;;20.40;16.40;;;;;;;16.58;97.94;100354.47;222636;1263;141754;-91
2023/06/18 05:26:23;;;;;;;17.20;12.90;;;;;;;16.94;97.51;100348.75;220984;1264;139700;-90
2023/06/18 05:31:24;;;;;;;17.90;12.60;;;;;;;17.38;96.94;100345.08;222777;1263;140503;-89
2023/06/18 05:36:25;;;;;;;15.70;11.70;;;;;;;18.03;96.58;100354.42;223534;1264;140250;-90
2023/06/18 05:41:26;;;;;;;14.80;10.40;;;;;;;18.87;95.49;100361.17;222802;1263;141382;-89
2023/06/18 05:46:26;;;;;;;14.90;11.50;;;;;;;19.77;92.56;100361.11;223428;1263;139279;-92
2023/06/18 05:51:27;;;;;;;16.00;11.40;;;;;;;20.56;89.30;100358.84;223028;1264;142076;-90
2023/06/18 05:56:27;;;;;;;13.00;9.60;;;;;;;21.43;86.03;100360.98;223547;1264;139160;-90
2023/06/18 06:01:27;;;;;;;12.90;9.00;;;;;;;22.16;82.86;100366.55;223001;1264;140679;-89
2023/06/18 06:06:28;;;;;;;11.90;9.10;;;;;;;22.78;79.21;100372.08;223605;1263;139920;-90
2023/06/18 06:11:29;;;;;;;13.40;8.80;;;;;;;23.42;77.04;100375.17;223022;1264;140388;-90
2023/06/18 06:16:30;;;;;;;11.80;7.60;;;;;;;24.15;73.90;100371.98;223458;1264;139025;-90
2023/06/18 06:21:33;;;;;;;12.50;7.40;;;;;;;24.69;71.77;100371.88;222991;1263;140353;-87
2023/06/18 06:26:33;;;;;;;9.90;7.10;;;;;;;25.51;69.22;100372.71;223389;1263;139179;-91
2023/06/18 06:31:33;;;;;;;10.10;7.30;;;;;;;26.15;66.27;100371.44;222958;1264;139794;-89
2023/06/18 06:36:35;;;;;;;10.60;7.80;;;;;;;26.64;63.32;100367.63;223321;1264;230789;-87
2023/06/18 06:41:36;;;;;;;11.30;7.30;;;;;;;27.04;62.89;100369.63;223016;1264;140256;-89
2023/06/18 06:46:36;;;;;;;9.40;7.10;;;;;;;27.50;60.74;100368.04;223395;1263;138466;-89
2023/06/18 06:51:37;;;;;;;11.00;7.20;;;;;;;27.90;59.25;100364.80;223008;1267;140496;-90
2023/06/18 06:56:38;;;;;;;10.20;6.50;;;;;;;28.44;57.75;100367.45;223468;1264;138625;-90
2023/06/18 07:01:39;;;;;;;9.40;6.80;;;;;;;28.99;55.72;100362.55;222962;1264;140113;-89
2023/06/18 07:06:40;;;;;;;12.20;7.00;;;;;;;29.21;54.15;100361.15;223513;1264;138172;-87
2023/06/18 07:11:40;;;;;;;9.30;6.20;;;;;;;29.40;52.50;100362.66;221329;1264;142509;-88
2023/06/18 07:16:40;;;;;;;9.10;6.30;;;;;;;29.66;52.18;100367.81;222244;1265;138158;-88
2023/06/18 07:21:41;;;;;;;9.70;7.00;;;;;;;29.82;50.71;100371.59;222902;1263;139576;-87
2023/06/18 07:26:42;;;;;;;9.70;6.60;;;;;;;30.11;50.41;100375.41;223502;1264;138368;-89
2023/06/18 07:31:43;;;;;;;8.90;6.80;;;;;;;30.50;49.59;100374.26;222977;1263;140777;-88
2023/06/18 07:36:43;;;;;;;9.20;6.80;;;;;;;30.84;48.63;100373.20;223456;1263;138655;-87
2023/06/18 07:41:47;;;;;;;9.40;6.90;;;;;;;31.09;47.31;100373.80;222912;1263;140438;-88
2023/06/18 07:46:48;;;;;;;8.70;6.30;;;;;;;31.31;46.91;100377.98;223442;1263;137998;-88
2023/06/18 07:51:48;;;;;;;7.40;5.70;;;;;;;31.30;45.92;100378.52;222916;1264;139194;-91
2023/06/18 07:56:50;;;;;;;10.10;7.30;;;;;;;31.06;45.02;100377.74;223381;1264;138466;-88
2023/06/18 08:01:52;;;;;;;11.20;6.10;;;;;;;30.44;44.28;100380.45;222924;1264;139516;-90
2023/06/18 08:06:52;;;;;;;9.80;6.20;;;;;;;30.31;44.78;100381.25;223531;1264;138410;-88
2023/06/18 08:11:53;;;;;;;7.00;4.70;;;;;;;30.56;43.83;100384.77;223056;1263;141198;-88
2023/06/18 08:16:53;;;;;;;7.70;4.90;;;;;;;30.94;43.95;100383.55;223574;1264;138279;-88
2023/06/18 08:21:54;;;;;;;6.20;4.20;;;;;;;31.30;43.46;100384.23;223043;1264;140052;-85
2023/06/18 08:26:54;;;;;;;7.60;4.90;;;;;;;31.90;41.82;100386.14;223600;1263;138416;-89
2023/06/18 08:31:55;;;;;;;10.00;5.00;;;;;;;32.12;41.76;100385.52;222935;1266;140090;-89
2023/06/18 08:36:55;;;;;;;7.10;4.80;;;;;;;32.30;41.05;100395.15;223572;1263;139259;-90
2023/06/18 08:42:05;;;;;;;9.20;5.50;;;;;;;31.65;40.30;100398.68;223192;1264;139897;-88
2023/06/18 08:47:06;;;;;;;6.70;4.40;;;;;;;31.15;40.80;100395.20;223406;1264;138766;-88
2023/06/18 08:52:08;;;;;;;7.50;4.40;;;;;;;31.13;41.29;100397.44;222919;1264;140735;-89
2023/06/18 08:57:20;;;;;;;7.00;4.70;;;;;;;31.40;41.13;100397.97;222497;1264;138506;-87
2023/06/18 09:02:22;;;;;;;9.10;5.20;;;;;;;31.38;40.37;100391.84;221088;1264;139924;-90
2023/06/18 09:07:27;;;;;;;7.10;5.10;;;;;;;31.50;39.36;100392.52;223348;1264;138308;-92
2023/06/18 09:12:27;;;;;;;9.60;5.10;;;;;;;31.80;39.98;100394.96;222932;1263;139982;-89
2023/06/18 09:17:28;;;;;;;8.10;4.30;;;;;;;32.46;39.03;100387.02;223452;1264;97926;-90
2023/06/18 09:22:28;;;;;;;7.00;4.50;;;;;;;32.93;37.91;100385.54;222655;1263;140127;-88
2023/06/18 09:27:32;;;;;;;7.20;4.60;;;;;;;33.50;37.75;100389.90;223365;1264;139319;-89
2023/06/18 09:32:44;;;;;;;;;;;;;;;34.25;37.32;100378.17;222918;1265;141191;-87
2023/06/18 09:37:45;;;;;;;8.40;6.00;;;;;;;34.68;35.71;100366.56;223421;1264;124718;-90
2023/06/18 09:42:50;;;;;;;6.60;4.40;;;;;;;34.72;35.27;100361.51;222851;1264;139804;-89
2023/06/18 09:47:52;;;;;;;7.30;4.70;;;;;;;35.10;35.40;100363.35;223448;1264;96678;-89
2023/06/18 09:52:52;;;;;;;7.70;4.80;;;;;;;35.89;34.45;100359.83;222987;1264;139966;-87
2023/06/18 09:57:53;;;;;;;10.50;5.50;;;;;;;36.04;32.87;100355.08;223549;1264;138959;-89
2023/06/18 10:03:04;;;;;;;6.80;5.00;;;;;;;35.69;33.03;100353.57;222978;1264;142175;-89
2023/06/18 10:08:06;;;;;;;7.50;4.60;;;;;;;35.45;32.40;100351.16;223372;1265;138792;-89
2023/06/18 10:13:11;;;;;;;8.60;4.70;;;;;;;35.14;32.98;100348.34;222774;1264;141238;-90
2023/06/18 10:18:22;;;;;;;7.20;5.00;;;;;;;34.81;33.14;100350.33;223495;1264;96128;-88
2023/06/18 10:23:25;;;;;;;7.40;5.10;;;;;;;34.32;33.57;100350.86;223030;1264;140649;-86
2023/06/18 10:28:27;;;;;;;7.80;5.80;;;;;;;34.31;34.26;100351.45;223537;1264;137955;-89
2023/06/18 10:33:31;;;;;;;7.30;5.10;;;;;;;33.94;33.48;100349.30;222911;1264;139844;-90
2023/06/18 10:38:34;;;;;;;7.40;5.20;;;;;;;33.65;34.16;100352.16;223424;1264;138592;-88
2023/06/18 10:43:38;;;;;;;7.20;5.30;;;;;;;33.44;33.79;100353.42;222305;1264;140322;-90
2023/06/18 10:48:39;;;;;;;8.00;5.00;;;;;;;32.90;32.49;100352.79;220896;1264;138098;-92
2023/06/18 10:53:40;;;;;;;7.50;5.50;;;;;;;32.68;33.46;100352.16;222501;1264;140622;-88
2023/06/18 10:58:42;;;;;;;7.50;5.10;;;;;;;32.97;34.29;100347.67;223346;1263;138185;-89
2023/06/18 11:03:42;;;;;;;6.60;4.60;;;;;;;32.98;33.83;100341.84;222936;1264;139444;-89
2023/06/18 11:08:43;;;;;;;8.30;4.80;;;;;;;33.02;33.92;100342.02;223569;1264;138228;-89
2023/06/18 11:13:53;;;;;;;6.80;4.50;;;;;;;32.97;33.66;100337.86;223052;1264;140039;-89
2023/06/18 11:18:58;;;;;;;8.40;4.80;;;;;;;32.97;33.87;100322.72;222971;1263;163274;-90
2023/06/18 11:23:58;;;;;;;9.60;4.40;;;;;;;33.27;34.18;100312.88;223529;1265;97007;-86
2023/06/18 11:29:00;;;;;;;6.70;4.20;;;;;;;33.71;32.92;100303.16;223016;1264;141528;-89
2023/06/18 11:34:03;;;;;;;5.70;4.20;;;;;;;33.90;32.07;100293.20;223350;1264;138687;-89
2023/06/18 11:39:04;;;;;;;6.60;4.20;;;;;;;34.05;32.22;100290.17;222757;1263;141071;-90
2023/06/18 11:44:05;;;;;;;7.50;4.30;;;;;;;34.72;31.85;100291.02;223350;1264;138743;-87
2023/06/18 11:49:15;;;;;;;4.80;3.30;;;;;;;35.08;30.11;100285.77;222831;1263;140428;-89
2023/06/18 11:54:15;;;;;;;6.60;4.00;;;;;;;35.28;29.83;100280.60;223542;1264;102922;-91
2023/06/18 11:59:16;;;;;;;7.40;4.20;;;;;;;35.93;30.25;100273.11;223057;1264;140382;-89
2023/06/18 12:04:16;;;;;;;6.90;3.60;;;;;;;36.21;29.61;100270.15;223394;1265;138618;-89
2023/06/18 12:09:17;;;;;;;8.40;3.90;;;;;;;36.43;30.15;100280.73;222847;1263;140022;-90
2023/06/18 12:14:31;;;;;;;5.70;3.50;;;;;;;36.48;29.58;100279.71;223389;1264;138779;-89
2023/06/18 12:19:33;;;;;;;5.60;3.50;;;;;;;36.35;29.56;100283.87;222766;1265;142086;-87
2023/06/18 12:24:34;;;;;;;5.40;3.60;;;;;;;35.90;28.88;100278.82;223512;1265;139188;-88
2023/06/18 12:29:34;;;;;;;5.60;3.30;;;;;;;35.85;29.26;100276.59;223339;1263;140027;-89
2023/06/18 12:34:35;;;;;;;8.40;3.30;;;;;;;35.99;27.35;100271.89;223792;1264;137982;-87
2023/06/18 12:39:36;;;;;;;4.70;3.30;;;;;;;35.79;26.99;100272.75;223139;1264;139767;-88
2023/06/18 12:44:38;;;;;;;6.30;3.90;;;;;;;35.33;28.30;100272.60;223580;1264;138772;-90
2023/06/18 12:49:40;;;;;;;5.50;3.50;;;;;;;35.36;29.70;100266.51;223088;1265;141592;-86
2023/06/18 12:54:40;;;;;;;5.10;3.20;;;;;;;35.66;29.51;100267.33;223817;1263;138414;-86
2023/06/18 12:59:49;;;;;;;5.30;3.20;;;;;;;35.85;27.83;100261.45;223394;1263;141243;-87
2023/06/18 13:04:50;;;;;;;4.80;2.80;;;;;;;35.57;26.80;100260.64;223602;1263;138346;-84
2023/06/18 13:09:51;;;;;;;6.80;3.10;;;;;;;35.02;27.17;100262.75;223099;1263;140478;-83
2023/06/18 13:14:51;;;;;;;8.50;4.70;;;;;;;34.55;27.86;100268.06;223633;1265;138568;-92
2023/06/18 13:19:51;;;;;;;7.30;4.30;;;;;;;33.89;28.61;100269.61;223324;1264;140117;-92
2023/06/18 13:24:53;;;;;;;7.20;4.30;;;;;;;33.12;30.39;100270.50;223674;1264;138747;-91
2023/06/18 13:29:55;;;;;;;9.40;4.10;;;;;;;32.90;31.42;100274.67;223222;1266;140485;-93
2023/06/18 13:34:55;;;;;;;7.80;5.30;;;;;;;32.53;32.48;100284.66;223651;1263;138530;-83
2023/06/18 13:39:56;;;;;;;6.10;4.40;;;;;;;31.85;32.90;100290.09;223230;1264;140158;-92
2023/06/18 13:44:59;;;;;;;7.00;4.20;;;;;;;31.47;33.96;100286.60;223789;1264;138879;-87
2023/06/18 13:49:59;;;;;;;5.80;3.50;;;;;;;31.33;33.79;100289.08;223266;1265;140123;-91
2023/06/18 13:55:00;;;;;;;5.50;3.50;;;;;;;31.10;33.99;100292.91;223678;1266;138454;-91
2023/06/18 14:00:00;;;;;;;6.30;3.20;;;;;;;30.75;33.60;100296.05;223350;1263;139890;-90
2023/06/18 14:05:01;;;;;;;6.50;3.50;;;;;;;30.44;33.97;100295.25;223666;1264;138262;-92
2023/06/18 14:10:01;;;;;;;6.60;4.00;;;;;;;30.29;34.58;100298.02;223238;1263;140619;-88
2023/06/18 14:15:03;;;;;;;5.00;3.20;;;;;;;30.32;34.73;100298.23;223642;1266;138214;-90
2023/06/18 14:20:04;;;;;;;9.30;4.10;;;;;;;30.24;34.72;100295.86;223173;1264;140575;-91
2023/06/18 14:25:05;;;;;;;7.50;4.00;;;;;;;30.16;34.90;100293.10;223912;1264;138316;-90
2023/06/18 14:30:06;;;;;;;6.20;3.60;;;;;;;30.06;35.04;100291.27;223322;1266;140083;-93
2023/06/18 14:35:07;;;;;;;6.30;3.80;;;;;;;29.94;35.66;100285.36;223793;1266;138117;-91
2023/06/18 14:40:08;;;;;;;5.60;3.40;;;;;;;30.07;35.30;100279.45;223271;1263;140826;-91
2023/06/18 14:45:10;;;;;;;6.70;3.80;;;;;;;30.07;34.82;100281.67;223838;1263;138110;-89
2023/06/18 14:50:11;;;;;;;10.70;5.00;;;;;;;29.68;35.88;100278.94;223271;1267;140024;-91
2023/06/18 14:55:13;;;;;;;7.40;4.60;;;;;;;29.11;37.84;100280.74;223815;1264;138391;-90
2023/06/18 15:00:14;;;;;;;6.00;4.00;;;;;;;29.02;38.09;100287.23;223242;1263;141124;-88
2023/06/18 15:05:14;;;;;;;7.50;4.40;;;;;;;28.84;38.82;100289.11;223572;1266;138758;-93
2023/06/18 15:10:15;;;;;;;7.80;4.30;;;;;;;28.75;38.88;100296.77;223141;1266;140339;-91
2023/06/18 15:15:16;;;;;;;7.70;4.40;;;;;;;28.49;38.97;100297.60;223621;1264;138364;-93
2023/06/18 15:20:18;;;;;;;6.80;4.10;;;;;;;28.19;39.50;100292.53;223211;1267;139970;-92
2023/06/18 15:25:18;;;;;;;8.20;5.10;;;;;;;28.20;39.99;100290.70;223706;1264;138815;-92
2023/06/18 15:30:18;;;;;;;6.30;4.00;;;;;;;28.22;39.78;100296.37;223274;1264;140658;-91
2023/06/18 15:35:19;;;;;;;7.00;4.10;;;;;;;28.18;40.21;100295.36;223923;1266;96343;-91
2023/06/18 15:40:19;;;;;;;14.70;4.90;;;;;;;28.07;40.20;100292.83;223134;1264;139788;-91
2023/06/18 15:45:20;;;;;;;8.00;4.40;;;;;;;27.81;40.37;100305.25;223817;1264;139641;-91
2023/06/18 15:50:21;;;;;;;6.20;3.90;;;;;;;27.69;40.59;100308.59;223259;1264;140715;-93
2023/06/18 15:55:33;;;;;;;6.50;4.20;;;;;;;27.48;40.62;100310.39;223847;1263;138448;-92
2023/06/18 16:00:34;;;;;;;7.50;4.20;;;;;;;27.23;40.61;100312.88;223086;1268;142234;-91
2023/06/18 16:05:35;;;;;;;6.30;4.20;;;;;;;26.96;41.27;100318.23;223998;1264;96639;-90
2023/06/18 16:10:35;;;;;;;8.10;4.00;;;;;;;26.96;41.55;100325.10;223399;1264;140788;-90
2023/06/18 16:15:36;;;;;;;8.50;4.70;;;;;;;26.94;41.81;100323.02;223644;1266;138438;-90
2023/06/18 16:20:37;;;;;;;7.10;4.20;;;;;;;26.90;42.03;100322.95;223241;1266;140188;-90
2023/06/18 16:25:37;;;;;;;8.30;4.50;;;;;;;26.78;41.74;100329.14;223651;1266;138817;-90
2023/06/18 16:30:38;;;;;;;7.40;4.10;;;;;;;26.51;42.39;100332.64;223176;1263;140632;-91
2023/06/18 16:35:38;;;;;;;8.60;4.70;;;;;;;26.42;42.81;100332.02;223769;1264;104925;-92
2023/06/18 16:40:39;;;;;;;7.60;4.40;;;;;;;26.38;42.73;100336.10;223187;1265;140501;-92
2023/06/18 16:45:40;;;;;;;6.80;4.00;;;;;;;26.27;42.82;100337.70;223882;1263;137958;-93
2023/06/18 16:50:41;;;;;;;8.00;5.20;;;;;;;26.16;43.31;100342.73;223399;1264;140170;-93
2023/06/18 16:55:41;;;;;;;8.00;4.70;;;;;;;26.07;43.57;100348.20;223694;1263;138314;-93
2023/06/18 17:00:42;;;;;;;6.00;3.70;;;;;;;25.97;43.91;100349.90;223326;1263;140939;-93
2023/06/18 17:05:42;;;;;;;7.30;4.40;;;;;;;25.80;44.20;100353.13;223905;1264;96384;-95
2023/06/18 17:10:44;;;;;;;7.70;5.00;;;;;;;25.60;44.62;100346.33;223253;1263;139944;-92
2023/06/18 17:15:45;;;;;;;6.90;4.60;;;;;;;25.48;44.75;100346.98;223744;1264;138146;-92
2023/06/18 17:20:45;;;;;;;9.00;5.20;;;;;;;25.32;44.97;100344.73;223260;1264;140948;-94
2023/06/18 17:25:46;;;;;;;7.50;4.70;;;;;;;25.13;45.59;100346.80;223816;1265;138319;-95
2023/06/18 17:30:46;;;;;;;7.10;4.60;;;;;;;25.05;45.86;100345.42;223372;1264;140441;-92
2023/06/18 17:35:47;;;;;;;15.00;5.40;;;;;;;25.00;46.27;100346.71;223938;1264;96580;-91
2023/06/18 17:40:47;;;;;;;10.60;5.20;;;;;;;24.92;46.55;100343.59;222903;1265;141711;-92
2023/06/18 17:45:48;;;;;;;8.50;5.40;;;;;;;24.83;46.73;100339.24;223682;1264;138369;-91
2023/06/18 17:50:48;;;;;;;7.70;5.00;;;;;;;24.72;46.90;100335.06;223320;1264;140633;-93
2023/06/18 17:55:48;;;;;;;7.00;4.60;;;;;;;24.62;47.50;100334.33;223789;1264;138316;-93
2023/06/18 18:00:52;;;;;;;10.50;5.30;;;;;;;24.50;47.66;100330.05;223175;1268;140680;-95
2023/06/18 18:05:53;;;;;;;8.60;5.20;;;;;;;24.34;47.86;100323.58;224015;1264;96289;-92
2023/06/18 18:10:54;;;;;;;7.80;5.00;;;;;;;24.23;48.38;100328.19;223188;1266;140313;-94
2023/06/18 18:15:56;;;;;;;7.60;4.80;;;;;;;24.12;48.52;100336.68;223714;1266;138750;-93
2023/06/18 18:20:56;;;;;;;12.50;5.20;;;;;;;23.92;49.01;100340.46;223351;1264;139378;-93
2023/06/18 18:25:57;;;;;;;12.50;5.70;;;;;;;23.72;49.97;100343.68;223972;1264;138419;-93
2023/06/18 18:30:57;;;;;;;9.40;6.00;;;;;;;23.49;50.53;100348.96;223406;1264;141206;-93
2023/06/18 18:35:58;;;;;;;9.10;5.40;;;;;;;23.27;51.33;100350.44;223502;1266;314954;-91
2023/06/18 18:40:58;;;;;;;9.80;5.90;;;;;;;23.03;52.18;100351.43;220060;1267;140597;-94
2023/06/18 18:45:59;;;;;;;10.60;5.80;;;;;;;22.83;53.12;100351.70;220548;1268;138863;-93
2023/06/18 18:50:59;;;;;;;13.10;6.10;;;;;;;22.55;54.02;100357.52;220433;1267;140703;-93
2023/06/18 18:56:00;;;;;;;8.30;5.30;;;;;;;22.31;54.85;100356.20;221458;1264;139071;-93
2023/06/18 19:01:00;;;;;;;13.50;6.40;;;;;;;22.02;56.40;100364.08;220275;1268;140619;-92
2023/06/18 19:06:01;;;;;;;10.70;7.40;;;;;;;21.78;57.16;100366.98;220615;1264;97909;-91
2023/06/18 19:11:02;;;;;;;9.80;7.00;;;;;;;21.55;58.69;100374.42;219980;1264;140720;-90
2023/06/18 19:16:02;;;;;;;13.50;7.40;;;;;;;21.31;59.49;100379.55;220531;1263;138198;-91
2023/06/18 19:21:03;;;;;;;11.30;7.00;;;;;;;21.07;60.17;100384.98;219994;1268;140892;-93
2023/06/18 19:26:03;;;;;;;11.80;7.20;;;;;;;20.84;60.67;100389.61;220238;1268;138876;-89
2023/06/18 19:31:04;;;;;;;10.80;7.40;;;;;;;20.67;61.06;100394.08;220128;1267;140066;-92
2023/06/18 19:36:05;;;;;;;11.50;7.30;;;;;;;20.54;61.76;100394.45;220712;1268;97934;-93
2023/06/18 19:41:06;;;;;;;11.30;7.90;;;;;;;20.36;62.58;100396.42;219836;1267;140651;-91
2023/06/18 19:46:06;;;;;;;11.60;8.70;;;;;;;20.19;63.10;100404.59;220317;1264;138294;-92
2023/06/18 19:51:07;;;;;;;13.30;8.20;;;;;;;20.03;63.75;100409.08;220310;1268;140615;-93
2023/06/18 19:56:07;;;;;;;10.90;8.20;;;;;;;19.83;64.39;100412.42;220430;1267;138592;-92
2023/06/18 20:01:07;;;;;;;11.20;7.70;;;;;;;19.65;65.08;100413.77;219598;1267;140811;-93
2023/06/18 20:06:08;;;;;;;14.50;7.80;;;;;;;19.49;65.63;100421.06;220454;1268;99281;-93
2023/06/18 20:11:08;;;;;;;11.80;7.80;;;;;;;19.32;66.39;100418.13;219972;1264;140159;-92
2023/06/18 22:01:03;;;;;;;16.70;10.90;;;;;;;16.30;79.34;100417.61;222194;1264;97851;-88
2023/06/18 22:06:06;;;;;;;15.80;12.10;;;;;;;16.22;79.56;100412.46;221960;1264;139802;-89
2023/06/18 22:11:06;;;;;;;16.80;10.90;;;;;;;16.12;79.81;100411.95;221425;1264;140139;-89
2023/06/18 22:16:07;;;;;;;14.30;10.70;;;;;;;16.03;80.36;100417.92;221997;1264;139827;-89
2023/06/18 22:21:09;;;;;;;17.50;11.30;;;;;;;15.95;80.76;100415.78;221337;1264;141339;-88
2023/06/18 22:26:10;;;;;;;14.90;11.10;;;;;;;15.88;81.67;100426.02;221814;1267;139300;-89
2023/06/18 22:31:10;;;;;;;14.60;10.70;;;;;;;15.80;81.93;100431.25;221436;1264;141847;-90
2023/06/18 22:36:11;;;;;;;16.80;12.70;;;;;;;15.70;82.21;100430.23;222007;1264;98046;-89
2023/06/18 22:41:11;;;;;;;14.90;11.60;;;;;;;15.64;83.26;100427.38;221373;1267;141425;-90
2023/06/18 22:46:12;;;;;;;16.50;11.90;;;;;;;15.57;83.57;100424.83;221967;1264;139220;-90
2023/06/18 22:51:12;;;;;;;14.80;11.50;;;;;;;15.50;83.74;100429.02;221333;1264;140586;-89
2023/06/18 22:56:13;;;;;;;15.00;11.20;;;;;;;15.43;84.28;100431.14;221999;1264;139321;-90
2023/06/18 23:01:14;;;;;;;16.60;10.70;;;;;;;15.38;84.42;100430.70;221289;1264;140843;-90
2023/06/18 23:06:15;;;;;;;15.30;11.10;;;;;;;15.32;84.99;100433.96;221964;1264;111742;-91
2023/06/18 23:11:15;;;;;;;16.20;11.40;;;;;;;15.27;85.45;100428.86;221511;1264;140063;-90
2023/06/18 23:16:17;;;;;;;16.00;10.70;;;;;;;15.21;85.35;100427.87;222085;1264;139644;-90
2023/06/18 23:21:17;;;;;;;14.40;10.70;;;;;;;15.14;85.76;100430.94;221413;1264;140951;-89
2023/06/18 23:26:19;;;;;;;14.70;10.40;;;;;;;15.08;85.94;100425.84;221875;1263;139230;-89
2023/06/18 23:31:20;;;;;;;15.30;10.50;;;;;;;15.03;86.97;100430.54;221296;1264;141315;-90
2023/06/18 23:36:22;;;;;;;14.00;9.80;;;;;;;14.96;86.86;100428.46;221854;1264;98027;-90
2023/06/18 23:41:22;;;;;;;14.70;10.80;;;;;;;14.90;86.00;100431.19;221694;1264;139766;-92
2023/06/18 23:46:23;;;;;;;12.60;9.40;;;;;;;14.88;87.72;100436.58;221864;1264;139532;-90
2023/06/18 23:51:23;;;;;;;16.00;10.50;;;;;;;14.81;88.36;100432.50;221161;1267;140589;-89
2023/06/18 23:56:24;;;;;;;15.90;10.40;;;;;;;14.75;88.68;100426.45;221898;1264;139317;-90
